LOT7LK EPWA-EVRA
Flight info
| Callsign | LOT7LK |
|---|---|
| Flight time | 0h 58m |
| Altitude | 37000 |
| Route | BAMSO Z182 ASLUX Z460 XESNA M857 BULEP DCT BOKSU DCT GUNTA |
| Aircraft | B738/M-SDE2E3FGHIJ1RWXY/LB1 |
Departure
| Time | 2026-05-04 14:58 |
|---|---|
| Airport | Warsaw Chopin Airport (EPWA) |
Arrival
| Time | 2026-05-04 15:57 |
|---|---|
| Airport | Riga International Airport (EVRA) |
| Time | Latitude | Longitude | Altitude | Speed | Heading |
|---|---|---|---|---|---|
| 2026-05-04 14:19 | 52.17647 | 20.96648 | 334 ft | 0 kts | 237° |
| 2026-05-04 14:45 | 52.17647 | 20.96649 | 338 ft | 1 kts | 237° |
| 2026-05-04 14:45 | 52.17655 | 20.96669 | 332 ft | 3 kts | 234° |
| 2026-05-04 14:45 | 52.17668 | 20.96694 | 332 ft | 3 kts | 212° |
| 2026-05-04 14:46 | 52.17680 | 20.96703 | 335 ft | 2 kts | 156° |
| 2026-05-04 14:46 | 52.17685 | 20.96700 | 332 ft | 0 kts | 147° |
| 2026-05-04 14:51 | 52.17676 | 20.96708 | 335 ft | 4 kts | 147° |
| 2026-05-04 14:51 | 52.17640 | 20.96746 | 335 ft | 8 kts | 147° |
| 2026-05-04 14:51 | 52.17599 | 20.96777 | 336 ft | 5 kts | 182° |
| 2026-05-04 14:51 | 52.17572 | 20.96746 | 338 ft | 5 kts | 236° |
| 2026-05-04 14:52 | 52.17551 | 20.96690 | 336 ft | 7 kts | 239° |
| 2026-05-04 14:52 | 52.17522 | 20.96613 | 336 ft | 9 kts | 238° |
| 2026-05-04 14:52 | 52.17476 | 20.96523 | 338 ft | 11 kts | 233° |
| 2026-05-04 14:52 | 52.17436 | 20.96410 | 338 ft | 11 kts | 228° |
| 2026-05-04 14:53 | 52.17363 | 20.96420 | 334 ft | 11 kts | 150° |
| 2026-05-04 14:53 | 52.17297 | 20.96479 | 338 ft | 11 kts | 152° |
| 2026-05-04 14:53 | 52.17231 | 20.96535 | 336 ft | 10 kts | 152° |
| 2026-05-04 14:53 | 52.17162 | 20.96595 | 337 ft | 13 kts | 151° |
| 2026-05-04 14:54 | 52.17072 | 20.96674 | 338 ft | 17 kts | 152° |
| 2026-05-04 14:54 | 52.16957 | 20.96774 | 336 ft | 20 kts | 152° |
| 2026-05-04 14:54 | 52.16837 | 20.96879 | 336 ft | 19 kts | 152° |
| 2026-05-04 14:54 | 52.16725 | 20.96977 | 336 ft | 16 kts | 152° |
| 2026-05-04 14:55 | 52.16650 | 20.97098 | 336 ft | 15 kts | 115° |
| 2026-05-04 14:55 | 52.16608 | 20.97251 | 336 ft | 14 kts | 114° |
| 2026-05-04 14:55 | 52.16567 | 20.97398 | 336 ft | 15 kts | 115° |
| 2026-05-04 14:55 | 52.16520 | 20.97560 | 335 ft | 16 kts | 115° |
| 2026-05-04 14:56 | 52.16474 | 20.97726 | 338 ft | 16 kts | 114° |
| 2026-05-04 14:56 | 52.16409 | 20.97799 | 336 ft | 12 kts | 194° |
| 2026-05-04 14:56 | 52.16331 | 20.97744 | 335 ft | 12 kts | 204° |
| 2026-05-04 14:56 | 52.16298 | 20.97714 | 336 ft | 2 kts | 238° |
| 2026-05-04 14:57 | 52.16301 | 20.97693 | 333 ft | 0 kts | 291° |
| 2026-05-04 14:57 | 52.16332 | 20.97577 | 333 ft | 38 kts | 294° |
| 2026-05-04 14:57 | 52.16546 | 20.96818 | 335 ft | 108 kts | 295° |
| 2026-05-04 14:58 | 52.16947 | 20.95434 | 389 ft | 156 kts | 293° |
| 2026-05-04 14:58 | 52.17430 | 20.93813 | 1020 ft | 160 kts | 292° |
| 2026-05-04 14:58 | 52.17887 | 20.92199 | 1731 ft | 164 kts | 291° |
| 2026-05-04 14:58 | 52.18472 | 20.90399 | 1998 ft | 197 kts | 309° |
| 2026-05-04 14:59 | 52.19686 | 20.89114 | 2227 ft | 224 kts | 335° |
| 2026-05-04 14:59 | 52.21201 | 20.88068 | 2463 ft | 247 kts | 334° |
| 2026-05-04 14:59 | 52.23880 | 20.84615 | 3937 ft | 250 kts | 309° |
| 2026-05-04 15:00 | 52.25057 | 20.82505 | 4735 ft | 252 kts | 310° |
| 2026-05-04 15:00 | 52.26505 | 20.80798 | 5350 ft | 268 kts | 339° |
| 2026-05-04 15:00 | 52.28398 | 20.80680 | 6052 ft | 282 kts | 11° |
| 2026-05-04 15:01 | 52.31984 | 20.83595 | 7501 ft | 295 kts | 30° |
| 2026-05-04 15:01 | 52.33707 | 20.85460 | 8246 ft | 299 kts | 32° |
| 2026-05-04 15:01 | 52.35448 | 20.87380 | 9021 ft | 304 kts | 32° |
| 2026-05-04 15:01 | 52.37210 | 20.89318 | 9841 ft | 307 kts | 32° |
| 2026-05-04 15:02 | 52.39016 | 20.91288 | 10392 ft | 321 kts | 31° |
| 2026-05-04 15:02 | 52.40931 | 20.93356 | 10599 ft | 345 kts | 31° |
| 2026-05-04 15:02 | 52.42971 | 20.95548 | 11138 ft | 355 kts | 31° |
| 2026-05-04 15:02 | 52.45053 | 20.97781 | 11897 ft | 359 kts | 31° |
| 2026-05-04 15:03 | 52.47156 | 21.00032 | 12680 ft | 363 kts | 31° |
| 2026-05-04 15:03 | 52.49291 | 21.02314 | 13465 ft | 369 kts | 30° |
| 2026-05-04 15:03 | 52.51455 | 21.04626 | 14221 ft | 373 kts | 30° |
| 2026-05-04 15:03 | 52.53637 | 21.06957 | 14991 ft | 376 kts | 30° |
| 2026-05-04 15:04 | 52.55841 | 21.09314 | 15764 ft | 379 kts | 30° |
| 2026-05-04 15:04 | 52.58059 | 21.11687 | 16542 ft | 383 kts | 30° |
| 2026-05-04 15:04 | 52.60303 | 21.14091 | 17345 ft | 386 kts | 30° |
| 2026-05-04 15:04 | 52.62554 | 21.16505 | 18216 ft | 387 kts | 30° |
| 2026-05-04 15:05 | 52.64815 | 21.18934 | 18866 ft | 390 kts | 30° |
| 2026-05-04 15:05 | 52.67097 | 21.21386 | 19519 ft | 393 kts | 30° |
| 2026-05-04 15:05 | 52.69396 | 21.23861 | 20185 ft | 396 kts | 30° |
| 2026-05-04 15:05 | 52.71715 | 21.26360 | 20854 ft | 399 kts | 31° |
| 2026-05-04 15:06 | 52.74044 | 21.28874 | 21509 ft | 402 kts | 31° |
| 2026-05-04 15:06 | 52.76391 | 21.31410 | 22132 ft | 405 kts | 31° |
| 2026-05-04 15:06 | 52.78758 | 21.33972 | 22748 ft | 408 kts | 31° |
| 2026-05-04 15:07 | 52.83543 | 21.39160 | 23870 ft | 415 kts | 31° |
| 2026-05-04 15:07 | 52.85973 | 21.41799 | 24333 ft | 419 kts | 31° |
| 2026-05-04 15:07 | 52.88419 | 21.44460 | 24807 ft | 423 kts | 31° |
| 2026-05-04 15:07 | 52.90883 | 21.47143 | 25275 ft | 426 kts | 31° |
| 2026-05-04 15:08 | 52.93368 | 21.49854 | 25729 ft | 429 kts | 31° |
| 2026-05-04 15:08 | 52.95874 | 21.52591 | 26168 ft | 433 kts | 31° |
| 2026-05-04 15:08 | 52.98394 | 21.55348 | 26603 ft | 436 kts | 31° |
| 2026-05-04 15:08 | 53.00938 | 21.58135 | 27042 ft | 439 kts | 31° |
| 2026-05-04 15:09 | 53.03497 | 21.60943 | 27467 ft | 442 kts | 30° |
| 2026-05-04 15:09 | 53.06075 | 21.63775 | 27885 ft | 446 kts | 30° |
| 2026-05-04 15:09 | 53.08668 | 21.66628 | 28290 ft | 449 kts | 30° |
| 2026-05-04 15:10 | 53.13914 | 21.72412 | 29076 ft | 455 kts | 30° |
| 2026-05-04 15:10 | 53.16565 | 21.75341 | 29449 ft | 459 kts | 30° |
| 2026-05-04 15:10 | 53.21916 | 21.81268 | 30140 ft | 465 kts | 30° |
| 2026-05-04 15:11 | 53.24610 | 21.84261 | 30475 ft | 467 kts | 30° |
| 2026-05-04 15:11 | 53.27324 | 21.87279 | 30746 ft | 470 kts | 30° |
| 2026-05-04 15:11 | 53.30013 | 21.90273 | 31046 ft | 472 kts | 30° |
| 2026-05-04 15:11 | 53.32746 | 21.93322 | 31364 ft | 473 kts | 30° |
| 2026-05-04 15:12 | 53.35486 | 21.96385 | 31725 ft | 473 kts | 30° |
| 2026-05-04 15:12 | 53.38221 | 21.99446 | 32176 ft | 471 kts | 30° |
| 2026-05-04 15:12 | 53.40939 | 22.02495 | 32639 ft | 469 kts | 30° |
| 2026-05-04 15:12 | 53.43647 | 22.05536 | 33043 ft | 468 kts | 30° |
| 2026-05-04 15:13 | 53.46352 | 22.08577 | 33432 ft | 468 kts | 30° |
| 2026-05-04 15:13 | 53.49065 | 22.11630 | 33711 ft | 470 kts | 30° |
| 2026-05-04 15:13 | 53.51783 | 22.14694 | 34025 ft | 470 kts | 30° |
| 2026-05-04 15:13 | 53.54498 | 22.17760 | 34386 ft | 469 kts | 30° |
| 2026-05-04 15:14 | 53.57199 | 22.20817 | 34746 ft | 467 kts | 30° |
| 2026-05-04 15:14 | 53.59891 | 22.23868 | 35066 ft | 466 kts | 30° |
| 2026-05-04 15:14 | 53.62577 | 22.26917 | 35356 ft | 466 kts | 31° |
| 2026-05-04 15:14 | 53.65270 | 22.29977 | 35653 ft | 466 kts | 31° |
| 2026-05-04 15:15 | 53.67952 | 22.33030 | 35963 ft | 465 kts | 31° |
| 2026-05-04 15:15 | 53.70632 | 22.36085 | 36237 ft | 465 kts | 31° |
| 2026-05-04 15:15 | 53.73316 | 22.39149 | 36505 ft | 465 kts | 31° |
| 2026-05-04 15:16 | 53.78678 | 22.45286 | 36890 ft | 468 kts | 31° |
| 2026-05-04 15:16 | 53.81382 | 22.48387 | 36896 ft | 470 kts | 31° |
| 2026-05-04 15:17 | 53.89440 | 22.57666 | 36859 ft | 462 kts | 31° |
| 2026-05-04 15:17 | 53.97359 | 22.66825 | 36880 ft | 457 kts | 31° |
| 2026-05-04 15:18 | 54.02605 | 22.72913 | 36888 ft | 456 kts | 31° |
| 2026-05-04 15:19 | 54.10459 | 22.82065 | 36887 ft | 456 kts | 31° |
| 2026-05-04 15:19 | 54.18335 | 22.91286 | 36889 ft | 460 kts | 31° |
| 2026-05-04 15:20 | 54.23626 | 22.97506 | 36887 ft | 463 kts | 32° |
| 2026-05-04 15:20 | 54.28977 | 23.03647 | 36873 ft | 463 kts | 25° |
| 2026-05-04 15:21 | 54.34938 | 23.07489 | 36891 ft | 455 kts | 7° |
| 2026-05-04 15:22 | 54.44305 | 23.10394 | 36884 ft | 457 kts | 6° |
| 2026-05-04 15:22 | 54.53721 | 23.13317 | 36891 ft | 459 kts | 6° |
| 2026-05-04 15:23 | 54.60008 | 23.15345 | 36884 ft | 459 kts | 6° |
| 2026-05-04 15:23 | 54.66290 | 23.17392 | 36883 ft | 460 kts | 6° |
| 2026-05-04 15:24 | 54.78810 | 23.21488 | 36763 ft | 461 kts | 6° |
| 2026-05-04 15:25 | 54.81977 | 23.22524 | 36279 ft | 462 kts | 6° |
| 2026-05-04 15:25 | 54.85124 | 23.23560 | 35742 ft | 459 kts | 6° |
| 2026-05-04 15:25 | 54.88260 | 23.24594 | 35209 ft | 458 kts | 6° |
| 2026-05-04 15:26 | 54.94462 | 23.26645 | 34394 ft | 450 kts | 5° |
| 2026-05-04 15:26 | 54.97527 | 23.27660 | 33985 ft | 446 kts | 5° |
| 2026-05-04 15:26 | 55.03569 | 23.29665 | 33120 ft | 438 kts | 5° |
| 2026-05-04 15:27 | 55.06543 | 23.30654 | 32723 ft | 433 kts | 5° |
| 2026-05-04 15:27 | 55.12399 | 23.32604 | 31956 ft | 424 kts | 5° |
| 2026-05-04 15:28 | 55.18158 | 23.34525 | 31180 ft | 418 kts | 4° |
| 2026-05-04 15:28 | 55.21008 | 23.35478 | 30798 ft | 415 kts | 4° |
| 2026-05-04 15:28 | 55.26639 | 23.37366 | 30059 ft | 409 kts | 4° |
| 2026-05-04 15:29 | 55.29426 | 23.38302 | 29647 ft | 406 kts | 4° |
| 2026-05-04 15:30 | 55.40293 | 23.41970 | 28147 ft | 390 kts | 4° |
| 2026-05-04 15:30 | 55.48193 | 23.44646 | 27018 ft | 381 kts | 3° |
| 2026-05-04 15:31 | 55.53362 | 23.46402 | 26311 ft | 376 kts | 3° |
| 2026-05-04 15:31 | 55.55928 | 23.47277 | 25935 ft | 375 kts | 3° |
| 2026-05-04 15:32 | 55.63664 | 23.49904 | 24847 ft | 387 kts | 3° |
| 2026-05-04 15:32 | 55.68968 | 23.51719 | 24078 ft | 387 kts | 2° |
| 2026-05-04 15:33 | 55.74224 | 23.53536 | 23298 ft | 382 kts | 2° |
| 2026-05-04 15:34 | 55.81931 | 23.56203 | 22108 ft | 373 kts | 2° |
| 2026-05-04 15:34 | 55.84465 | 23.57080 | 21752 ft | 369 kts | 2° |
| 2026-05-04 15:34 | 55.89468 | 23.58814 | 21006 ft | 363 kts | 2° |
| 2026-05-04 15:35 | 55.94398 | 23.60525 | 20306 ft | 359 kts | 2° |
| 2026-05-04 15:35 | 55.96840 | 23.61374 | 19945 ft | 357 kts | 3° |
| 2026-05-04 15:35 | 55.99266 | 23.62218 | 19582 ft | 355 kts | 3° |
| 2026-05-04 15:36 | 56.04088 | 23.63901 | 18879 ft | 351 kts | 3° |
| 2026-05-04 15:36 | 56.06479 | 23.64736 | 18529 ft | 350 kts | 3° |
| 2026-05-04 15:36 | 56.08864 | 23.65571 | 18171 ft | 348 kts | 3° |
| 2026-05-04 15:37 | 56.11235 | 23.66403 | 17777 ft | 347 kts | 4° |
| 2026-05-04 15:37 | 56.13595 | 23.67232 | 17396 ft | 345 kts | 4° |
| 2026-05-04 15:37 | 56.15939 | 23.68056 | 17033 ft | 342 kts | 4° |
| 2026-05-04 15:37 | 56.18270 | 23.68877 | 16683 ft | 340 kts | 4° |
| 2026-05-04 15:38 | 56.20583 | 23.69693 | 16343 ft | 338 kts | 4° |
| 2026-05-04 15:38 | 56.22109 | 23.70231 | 16108 ft | 337 kts | 4° |
| 2026-05-04 15:38 | 56.24401 | 23.71040 | 15761 ft | 335 kts | 4° |
| 2026-05-04 15:38 | 56.26677 | 23.71845 | 15425 ft | 333 kts | 4° |
| 2026-05-04 15:39 | 56.28943 | 23.72647 | 15081 ft | 331 kts | 4° |
| 2026-05-04 15:39 | 56.31198 | 23.73445 | 14732 ft | 329 kts | 4° |
| 2026-05-04 15:39 | 56.35676 | 23.75035 | 14060 ft | 327 kts | 4° |
| 2026-05-04 15:40 | 56.37904 | 23.75606 | 13717 ft | 319 kts | 353° |
| 2026-05-04 15:40 | 56.40099 | 23.75403 | 13398 ft | 315 kts | 347° |
| 2026-05-04 15:40 | 56.42286 | 23.75043 | 13057 ft | 316 kts | 347° |
| 2026-05-04 15:40 | 56.44478 | 23.74663 | 12727 ft | 317 kts | 347° |
| 2026-05-04 15:41 | 56.46666 | 23.74297 | 12405 ft | 315 kts | 347° |
| 2026-05-04 15:41 | 56.48842 | 23.73950 | 12102 ft | 313 kts | 347° |
| 2026-05-04 15:41 | 56.51008 | 23.73616 | 11798 ft | 312 kts | 347° |
| 2026-05-04 15:41 | 56.53163 | 23.73292 | 11483 ft | 310 kts | 347° |
| 2026-05-04 15:42 | 56.55308 | 23.72975 | 11187 ft | 309 kts | 347° |
| 2026-05-04 15:42 | 56.57444 | 23.72663 | 10873 ft | 307 kts | 347° |
| 2026-05-04 15:42 | 56.59570 | 23.72354 | 10570 ft | 306 kts | 347° |
| 2026-05-04 15:42 | 56.61685 | 23.72047 | 10268 ft | 304 kts | 347° |
| 2026-05-04 15:43 | 56.63789 | 23.71743 | 9966 ft | 302 kts | 347° |
| 2026-05-04 15:43 | 56.65876 | 23.71442 | 9672 ft | 300 kts | 347° |
| 2026-05-04 15:43 | 56.67944 | 23.71144 | 9347 ft | 297 kts | 347° |
| 2026-05-04 15:43 | 56.69994 | 23.70848 | 9044 ft | 294 kts | 347° |
| 2026-05-04 15:44 | 56.71993 | 23.70558 | 8751 ft | 291 kts | 347° |
| 2026-05-04 15:44 | 56.74022 | 23.70264 | 8458 ft | 287 kts | 347° |
| 2026-05-04 15:44 | 56.75983 | 23.69980 | 8192 ft | 285 kts | 347° |
| 2026-05-04 15:44 | 56.77974 | 23.69690 | 7900 ft | 282 kts | 347° |
| 2026-05-04 15:45 | 56.79900 | 23.69408 | 7627 ft | 280 kts | 347° |
| 2026-05-04 15:45 | 56.81838 | 23.69125 | 7358 ft | 279 kts | 347° |
| 2026-05-04 15:45 | 56.83782 | 23.68842 | 7195 ft | 274 kts | 347° |
| 2026-05-04 15:45 | 56.85674 | 23.68563 | 6984 ft | 279 kts | 347° |
| 2026-05-04 15:46 | 56.87624 | 23.68271 | 6730 ft | 284 kts | 347° |
| 2026-05-04 15:46 | 56.89602 | 23.67980 | 6440 ft | 285 kts | 347° |
| 2026-05-04 15:46 | 56.91566 | 23.67696 | 6158 ft | 282 kts | 347° |
| 2026-05-04 15:46 | 56.93513 | 23.67413 | 5863 ft | 279 kts | 347° |
| 2026-05-04 15:47 | 56.95438 | 23.67132 | 5577 ft | 276 kts | 347° |
| 2026-05-04 15:47 | 56.97340 | 23.66854 | 5302 ft | 273 kts | 348° |
| 2026-05-04 15:47 | 56.99225 | 23.66578 | 5068 ft | 269 kts | 348° |
| 2026-05-04 15:47 | 57.01080 | 23.66635 | 4992 ft | 265 kts | 359° |
| 2026-05-04 15:48 | 57.02868 | 23.67083 | 4973 ft | 254 kts | 0° |
| 2026-05-04 15:48 | 57.04576 | 23.67544 | 4958 ft | 242 kts | 359° |
| 2026-05-04 15:48 | 57.07852 | 23.68343 | 4992 ft | 235 kts | 359° |
| 2026-05-04 15:49 | 57.09475 | 23.68717 | 4971 ft | 235 kts | 359° |
| 2026-05-04 15:49 | 57.11091 | 23.69086 | 4988 ft | 233 kts | 359° |
| 2026-05-04 15:49 | 57.12697 | 23.69452 | 4972 ft | 233 kts | 359° |
| 2026-05-04 15:49 | 57.14247 | 23.70436 | 4956 ft | 245 kts | 32° |
| 2026-05-04 15:50 | 57.15279 | 23.72976 | 4878 ft | 259 kts | 71° |
| 2026-05-04 15:50 | 57.15348 | 23.76284 | 4677 ft | 262 kts | 103° |
| 2026-05-04 15:50 | 57.14971 | 23.79566 | 4414 ft | 262 kts | 105° |
| 2026-05-04 15:50 | 57.14594 | 23.82840 | 4189 ft | 260 kts | 104° |
| 2026-05-04 15:51 | 57.14241 | 23.86092 | 3963 ft | 257 kts | 104° |
| 2026-05-04 15:51 | 57.13905 | 23.89307 | 3757 ft | 255 kts | 103° |
| 2026-05-04 15:51 | 57.13579 | 23.92495 | 3560 ft | 250 kts | 103° |
| 2026-05-04 15:51 | 57.13265 | 23.95583 | 3346 ft | 242 kts | 104° |
| 2026-05-04 15:52 | 57.12703 | 23.98391 | 3092 ft | 228 kts | 134° |
| 2026-05-04 15:52 | 57.11472 | 23.99813 | 2925 ft | 198 kts | 179° |
| 2026-05-04 15:52 | 57.10161 | 23.99850 | 2800 ft | 183 kts | 187° |
| 2026-05-04 15:52 | 57.08923 | 23.99795 | 2657 ft | 172 kts | 190° |
| 2026-05-04 15:53 | 57.07763 | 23.99653 | 2560 ft | 165 kts | 192° |
| 2026-05-04 15:53 | 57.06640 | 23.99478 | 2460 ft | 160 kts | 192° |
| 2026-05-04 15:53 | 57.05532 | 23.99296 | 2385 ft | 159 kts | 192° |
| 2026-05-04 15:53 | 57.04410 | 23.99109 | 2202 ft | 164 kts | 192° |
| 2026-05-04 15:54 | 57.03285 | 23.98925 | 1988 ft | 159 kts | 192° |
| 2026-05-04 15:54 | 57.02221 | 23.98752 | 1788 ft | 148 kts | 192° |
| 2026-05-04 15:54 | 57.01231 | 23.98587 | 1585 ft | 141 kts | 191° |
| 2026-05-04 15:54 | 57.00265 | 23.98429 | 1374 ft | 138 kts | 191° |
| 2026-05-04 15:55 | 56.99316 | 23.98287 | 1245 ft | 139 kts | 191° |
| 2026-05-04 15:55 | 56.98334 | 23.98113 | 1052 ft | 144 kts | 193° |
| 2026-05-04 15:55 | 56.97327 | 23.97927 | 785 ft | 146 kts | 189° |
| 2026-05-04 15:55 | 56.96338 | 23.97789 | 620 ft | 141 kts | 191° |
| 2026-05-04 15:56 | 56.95365 | 23.97607 | 442 ft | 141 kts | 191° |
| 2026-05-04 15:56 | 56.94399 | 23.97452 | 259 ft | 138 kts | 189° |
| 2026-05-04 15:56 | 56.93454 | 23.97297 | 69 ft | 135 kts | 189° |
| 2026-05-04 15:56 | 56.92606 | 23.97153 | 44 ft | 96 kts | 185° |
| 2026-05-04 15:57 | 56.92181 | 23.97085 | 43 ft | 40 kts | 186° |
| 2026-05-04 15:57 | 56.91930 | 23.97076 | 43 ft | 29 kts | 170° |
| 2026-05-04 15:57 | 56.91799 | 23.97149 | 43 ft | 12 kts | 155° |
| 2026-05-04 15:57 | 56.91726 | 23.97221 | 43 ft | 12 kts | 131° |
| 2026-05-04 15:58 | 56.91715 | 23.97358 | 43 ft | 10 kts | 77° |
| 2026-05-04 15:58 | 56.91771 | 23.97412 | 43 ft | 10 kts | 7° |
| 2026-05-04 15:58 | 56.91842 | 23.97422 | 43 ft | 11 kts | 4° |
| 2026-05-04 15:58 | 56.91929 | 23.97434 | 43 ft | 14 kts | 2° |
| 2026-05-04 15:59 | 56.92014 | 23.97445 | 41 ft | 10 kts | 4° |
| 2026-05-04 15:59 | 56.92080 | 23.97453 | 43 ft | 9 kts | 4° |
| 2026-05-04 15:59 | 56.92130 | 23.97468 | 43 ft | 7 kts | 32° |
| 2026-05-04 15:59 | 56.92140 | 23.97551 | 43 ft | 7 kts | 92° |
| 2026-05-04 16:00 | 56.92136 | 23.97629 | 43 ft | 3 kts | 95° |
| 2026-05-04 16:00 | 56.92142 | 23.97648 | 41 ft | 2 kts | 49° |
| 2026-05-04 16:00 | 56.92169 | 23.97660 | 43 ft | 5 kts | 6° |
| 2026-05-04 16:00 | 56.92187 | 23.97662 | 41 ft | 2 kts | 5° |
| 2026-05-04 16:01 | 56.92194 | 23.97663 | 42 ft | 0 kts | 5° |